createdAt,value
2017-04-20T00:00:40.554Z,1
2017-04-20T00:01:42.891Z,1
2017-04-20T00:02:45.093Z,1
2017-04-20T00:03:47.931Z,0.9
2017-04-20T00:04:50.518Z,0.9
2017-04-20T00:05:52.854Z,0.9
2017-04-20T00:06:55.556Z,1
2017-04-20T00:07:57.894Z,1
2017-04-20T00:09:00.231Z,1
2017-04-20T00:10:03.340Z,1
2017-04-20T00:11:05.241Z,1
2017-04-20T00:12:08.084Z,1
2017-04-20T00:13:10.288Z,1
2017-04-20T00:14:13.131Z,1
2017-04-20T00:15:15.639Z,1
2017-04-20T00:16:17.979Z,1
2017-04-20T00:17:20.313Z,1
2017-04-20T00:18:23.156Z,1
2017-04-20T00:20:28.071Z,1
2017-04-20T00:21:30.422Z,1
2017-04-20T00:22:32.623Z,1
2017-04-20T00:23:35.467Z,1
2017-04-20T00:24:38.368Z,1
2017-04-20T00:25:40.357Z,1
2017-04-20T00:27:45.467Z,0.9
2017-04-20T00:28:47.808Z,0.9
2017-04-20T00:29:50.517Z,0.8
2017-04-20T00:30:53.030Z,0.8
2017-04-20T00:31:55.366Z,0.8
2017-04-20T00:32:58.204Z,0.8
2017-04-20T00:34:00.542Z,0.8
2017-04-20T00:35:02.889Z,0.8
2017-04-20T00:36:05.476Z,0.9
2017-04-20T00:37:07.813Z,0.9
2017-04-20T00:38:10.647Z,0.9
2017-04-20T00:39:12.987Z,0.9
2017-04-20T00:40:15.322Z,0.9
2017-04-20T00:41:18.413Z,0.9
2017-04-20T00:42:20.247Z,1
2017-04-20T00:43:23.089Z,1
2017-04-20T00:44:25.424Z,1
2017-04-20T00:45:27.759Z,1
2017-04-20T00:46:30.723Z,1
2017-04-20T00:47:33.057Z,1.1
2017-04-20T00:48:35.390Z,1.1
2017-04-20T00:49:37.592Z,1.1
2017-04-20T00:50:40.433Z,1
2017-04-20T00:51:43.021Z,1
2017-04-20T00:52:45.483Z,1
2017-04-20T00:53:48.183Z,1
2017-04-20T00:54:50.517Z,1
2017-04-20T00:55:52.725Z,0.9
2017-04-20T00:56:55.870Z,0.8
2017-04-20T00:57:58.212Z,0.9
2017-04-20T00:59:00.553Z,0.8
2017-04-20T01:00:02.885Z,0.8
2017-04-20T01:01:05.597Z,0.8
2017-04-20T01:02:08.295Z,0.8
2017-04-20T01:03:10.498Z,0.8
2017-04-20T01:04:12.839Z,0.8
2017-04-20T01:05:15.679Z,0.8
2017-04-20T01:06:18.016Z,0.8
2017-04-20T01:08:22.872Z,0.9
2017-04-20T01:09:25.577Z,0.8
2017-04-20T01:10:27.778Z,0.8
2017-04-20T01:11:30.368Z,0.8
2017-04-20T01:12:33.213Z,0.8
2017-04-20T01:13:35.856Z,0.8
2017-04-20T01:15:40.602Z,0.8
2017-04-20T01:16:42.938Z,0.8
2017-04-20T01:17:45.139Z,0.8
2017-04-20T01:18:48.230Z,0.8
2017-04-20T01:19:50.571Z,0.8
2017-04-20T01:20:52.966Z,0.8
2017-04-20T01:21:55.868Z,0.8
2017-04-20T01:22:58.202Z,0.8
2017-04-20T01:24:00.791Z,0.8
2017-04-20T01:25:02.857Z,0.7
2017-04-20T01:26:05.428Z,0.6
2017-04-20T01:27:07.999Z,0.6
2017-04-20T01:28:10.338Z,0.8
2017-04-20T01:29:13.479Z,0.8
2017-04-20T01:31:17.718Z,0.8
2017-04-20T01:32:20.557Z,0.8
2017-04-20T01:33:22.948Z,0.8
2017-04-20T01:34:25.584Z,0.7
2017-04-20T01:35:28.003Z,0.7
2017-04-20T01:36:30.262Z,0.8
2017-04-20T01:37:32.966Z,0.8
2017-04-20T01:38:35.327Z,0.8
2017-04-20T01:39:38.469Z,0.8
2017-04-20T01:40:40.168Z,0.8
2017-04-20T01:41:43.009Z,0.8
2017-04-20T01:42:45.348Z,0.8
2017-04-20T01:43:48.059Z,0.8
2017-04-20T01:44:50.559Z,0.8
2017-04-20T01:45:52.898Z,0.8
2017-04-20T01:46:55.098Z,0.8
2017-04-20T01:47:57.941Z,0.8
2017-04-20T01:49:00.398Z,0.8
2017-04-20T01:50:02.916Z,0.8
2017-04-20T01:51:05.261Z,0.8
2017-04-20T01:52:08.100Z,0.7
2017-04-20T01:53:10.443Z,0.7
2017-04-20T01:54:12.781Z,0.7
2017-04-20T01:55:15.871Z,0.7
2017-04-20T01:56:17.704Z,0.7
2017-04-20T01:57:20.553Z,0.7
2017-04-20T01:58:22.762Z,0.6
2017-04-20T01:59:24.973Z,0.6
2017-04-20T02:00:28.634Z,0.6
2017-04-20T02:01:30.397Z,0.6
2017-04-20T02:02:32.781Z,0.6
2017-04-20T02:03:35.696Z,0.6
2017-04-20T02:04:38.049Z,0.6
2017-04-20T02:05:40.685Z,0.5
2017-04-20T02:06:42.890Z,0.5
2017-04-20T02:07:45.226Z,0.5
2017-04-20T02:08:47.568Z,0.5
2017-04-20T02:09:50.406Z,0.5
2017-04-20T02:10:53.000Z,0.5
2017-04-20T02:11:55.197Z,0.5
2017-04-20T02:12:57.550Z,0.5
2017-04-20T02:14:00.390Z,0.5
2017-04-20T02:15:02.729Z,0.5
2017-04-20T02:16:05.450Z,0.5
2017-04-20T02:17:07.818Z,0.5
2017-04-20T02:18:10.151Z,0.5
2017-04-20T02:19:12.355Z,0.5
2017-04-20T02:20:15.199Z,0.5
2017-04-20T02:21:17.836Z,0.5
2017-04-20T02:22:20.172Z,0.5
2017-04-20T02:23:22.374Z,0.5
2017-04-20T02:24:25.775Z,0.5
2017-04-20T02:25:27.607Z,0.5
2017-04-20T02:26:30.200Z,0.4
2017-04-20T02:27:33.103Z,0.4
2017-04-20T02:28:34.942Z,0.5
2017-04-20T02:29:37.783Z,0.5
2017-04-20T02:30:40.293Z,0.5
2017-04-20T02:31:43.490Z,0.4
2017-04-20T02:32:45.330Z,0.5
2017-04-20T02:33:47.533Z,0.4
2017-04-20T02:34:49.868Z,0.4
2017-04-20T02:35:52.708Z,0.3
2017-04-20T02:36:55.347Z,0.3
2017-04-20T02:37:58.245Z,0.3
2017-04-20T02:40:02.494Z,0.4
2017-04-20T02:42:07.974Z,0.3
2017-04-20T02:43:09.810Z,0.3
2017-04-20T02:44:12.515Z,0.3
2017-04-20T02:45:14.850Z,0.3
2017-04-20T02:46:17.555Z,0.3
2017-04-20T02:47:20.142Z,0.3
2017-04-20T02:48:22.343Z,0.3
2017-04-20T02:49:25.763Z,0.3
2017-04-20T02:50:27.602Z,0.3
2017-04-20T02:51:30.349Z,0.3
2017-04-20T02:52:32.349Z,0.3
2017-04-20T02:53:34.686Z,0.3
2017-04-20T02:55:39.795Z,0.3
2017-04-20T02:56:42.145Z,0.3
2017-04-20T02:57:45.238Z,0.3
2017-04-20T02:58:47.447Z,0.3
2017-04-20T02:59:49.657Z,0.3
2017-04-20T03:00:52.502Z,0.3
2017-04-20T03:01:54.838Z,0.3
2017-04-20T03:02:57.478Z,0.3
2017-04-20T03:03:59.812Z,0.3
2017-04-20T03:05:02.151Z,0.3
2017-04-20T03:06:04.995Z,0.3
2017-04-20T03:07:07.335Z,0.3
2017-04-20T03:08:10.355Z,0.3
2017-04-20T03:09:12.192Z,0.3
2017-04-20T03:10:14.524Z,0.3
2017-04-20T03:11:17.374Z,0.3
2017-04-20T03:12:19.715Z,0.3
2017-04-20T03:13:22.357Z,0.4
2017-04-20T03:14:24.690Z,0.3
2017-04-20T03:15:27.027Z,0.3
2017-04-20T03:16:29.864Z,0.3
2017-04-20T03:17:32.070Z,0.2
2017-04-20T03:18:34.662Z,0.2
2017-04-20T03:19:36.996Z,0.1
2017-04-20T03:20:39.837Z,0.1
2017-04-20T03:21:42.204Z,0.1
2017-04-20T03:22:44.657Z,0.1
2017-04-20T03:23:47.177Z,0.1
2017-04-20T03:24:49.380Z,0.1
2017-04-20T03:26:54.626Z,0.2
2017-04-20T03:27:56.827Z,0.2
2017-04-20T03:28:59.967Z,0.1
2017-04-20T03:30:01.802Z,0.1
2017-04-20T03:31:04.509Z,0.1
2017-04-20T03:32:06.847Z,0.1
2017-04-20T03:33:09.185Z,0
2017-04-20T03:34:12.333Z,0.1
2017-04-20T03:35:14.404Z,0.1
2017-04-20T03:36:16.747Z,0.1
2017-04-20T03:37:19.592Z,0.1
2017-04-20T03:38:21.932Z,0.1
2017-04-20T03:39:24.521Z,0
2017-04-20T03:40:26.724Z,0
2017-04-20T03:41:29.064Z,0
2017-04-20T03:42:31.597Z,0
2017-04-20T03:43:34.453Z,0
2017-04-20T03:44:37.044Z,0
2017-04-20T03:45:39.250Z,0
2017-04-20T03:46:41.451Z,0
2017-04-20T03:47:44.335Z,0
2017-04-20T03:48:46.674Z,0
2017-04-20T03:50:51.448Z,0
2017-04-20T03:51:54.286Z,0
2017-04-20T03:52:56.630Z,-0.1
2017-04-20T03:53:58.969Z,0
2017-04-20T03:55:01.814Z,0
2017-04-20T03:57:06.671Z,0
2017-04-20T03:58:09.009Z,-0.1
2017-04-20T03:59:11.348Z,-0.1
2017-04-20T04:00:14.190Z,-0.1
2017-04-20T04:01:16.588Z,-0.1
2017-04-20T04:02:19.255Z,-0.1
2017-04-20T04:03:21.595Z,-0.1
2017-04-20T04:04:23.937Z,-0.1
2017-04-20T04:05:26.137Z,-0.1
2017-04-20T04:06:28.974Z,-0.1
2017-04-20T04:07:31.565Z,-0.1
2017-04-20T04:08:33.905Z,-0.1
2017-04-20T04:09:36.112Z,-0.1
2017-04-20T04:10:38.961Z,-0.1
2017-04-20T04:11:41.292Z,-0.1
2017-04-20T04:12:43.930Z,-0.1
2017-04-20T04:13:46.265Z,-0.1
2017-04-20T04:14:48.615Z,-0.1
2017-04-20T04:15:51.456Z,-0.1
2017-04-20T04:16:53.663Z,-0.1
2017-04-20T04:17:56.249Z,-0.1
2017-04-20T04:18:58.585Z,-0.1
2017-04-20T04:20:01.295Z,-0.1
2017-04-20T04:21:03.639Z,-0.1
2017-04-20T04:23:08.547Z,-0.1
2017-04-20T04:24:10.886Z,-0.1
2017-04-20T04:25:13.730Z,-0.1
2017-04-20T04:26:16.065Z,-0.1
2017-04-20T04:27:18.401Z,0
2017-04-20T04:28:20.907Z,0
2017-04-20T04:29:22.971Z,0
2017-04-20T04:30:25.809Z,0
2017-04-20T04:31:28.646Z,0
2017-04-20T04:32:30.844Z,0
2017-04-20T04:33:33.434Z,0
2017-04-20T04:34:35.768Z,0
2017-04-20T04:35:38.608Z,0
2017-04-20T04:36:40.955Z,0
2017-04-20T04:37:43.293Z,0
2017-04-20T04:38:45.931Z,0.1
2017-04-20T04:39:48.410Z,0.1
2017-04-20T04:40:50.746Z,0
2017-04-20T04:42:55.899Z,0.1
2017-04-20T04:43:58.533Z,0.1
2017-04-20T04:45:00.866Z,0.1
2017-04-20T04:46:03.203Z,0.1
2017-04-20T04:47:06.097Z,0.1
2017-04-20T04:48:07.932Z,0.2
2017-04-20T04:50:13.427Z,0.3
2017-04-20T04:51:15.763Z,0.4
2017-04-20T04:52:18.088Z,0.4
2017-04-20T04:53:20.426Z,0.4
2017-04-20T04:54:23.279Z,0.5
2017-04-20T04:55:25.919Z,0.5
2017-04-20T04:56:28.256Z,0.5
2017-04-20T04:57:30.592Z,0.5
2017-04-20T04:58:32.792Z,0.5
2017-04-20T04:59:35.632Z,0.5
2017-04-20T05:00:38.271Z,0.5
2017-04-20T05:01:40.609Z,0.5
2017-04-20T05:02:42.946Z,0.6
2017-04-20T05:03:45.282Z,0.5
2017-04-20T05:04:47.859Z,0.6
2017-04-20T05:05:50.501Z,0.6
2017-04-20T05:06:52.910Z,0.6
2017-04-20T05:07:55.247Z,0.7
2017-04-20T05:08:58.089Z,0.7
2017-04-20T05:10:00.426Z,0.7
2017-04-20T05:11:03.067Z,0.7
2017-04-20T05:12:05.294Z,0.8
2017-04-20T05:13:07.631Z,0.8
2017-04-20T05:14:10.489Z,0.8
2017-04-20T05:15:12.700Z,0.8
2017-04-20T05:16:15.348Z,0.8
2017-04-20T05:17:17.681Z,0.8
2017-04-20T05:18:20.198Z,0.7
2017-04-20T05:19:22.531Z,0.8
2017-04-20T05:20:25.372Z,0.8
2017-04-20T05:21:28.013Z,0.8
2017-04-20T05:22:30.356Z,0.8
2017-04-20T05:23:32.560Z,0.9
2017-04-20T05:24:34.959Z,0.9
2017-04-20T05:25:37.796Z,1
2017-04-20T05:26:40.386Z,1
2017-04-20T05:27:42.722Z,1
2017-04-20T05:28:45.057Z,0.9
2017-04-20T05:29:47.264Z,1
2017-04-20T05:30:50.106Z,1
2017-04-20T05:31:52.693Z,1
2017-04-20T05:32:55.116Z,1.1
2017-04-20T05:33:57.318Z,1.1
2017-04-20T05:35:00.161Z,1.1
2017-04-20T05:36:02.499Z,1.1
2017-04-20T05:37:05.665Z,1.1
2017-04-20T05:38:07.506Z,1.2
2017-04-20T05:40:12.758Z,1.3
2017-04-20T05:41:15.093Z,1.3
2017-04-20T05:42:17.682Z,1.3
2017-04-20T05:43:20.011Z,1.4
2017-04-20T05:44:22.449Z,1.4
2017-04-20T05:45:25.288Z,1.5
2017-04-20T05:46:27.622Z,1.5
2017-04-20T05:47:30.223Z,1.5
2017-04-20T05:48:32.562Z,1.4
2017-04-20T05:49:34.899Z,1.5
2017-04-20T05:50:37.740Z,1.5
2017-04-20T05:51:40.079Z,1.6
2017-04-20T05:52:42.529Z,1.6
2017-04-20T05:53:44.867Z,1.6
2017-04-20T05:55:50.112Z,1.8
2017-04-20T05:57:55.524Z,1.9
2017-04-20T05:58:57.358Z,1.9
2017-04-20T06:00:00.198Z,2
2017-04-20T06:01:02.535Z,2
2017-04-20T06:02:04.872Z,2
2017-04-20T06:03:07.967Z,2.1
2017-04-20T06:04:10.303Z,2.1
2017-04-20T06:05:12.642Z,2.1
2017-04-20T06:06:14.976Z,2.1
2017-04-20T06:07:17.682Z,2.1
2017-04-20T06:08:20.275Z,2.1
2017-04-20T06:09:22.670Z,2.1
2017-04-20T06:10:25.010Z,2.1
2017-04-20T06:11:27.855Z,2.1
2017-04-20T06:12:30.083Z,2.1
2017-04-20T06:13:32.683Z,2.2
2017-04-20T06:14:35.027Z,2.1
2017-04-20T06:16:40.140Z,2.2
2017-04-20T06:17:42.479Z,2.4
2017-04-20T06:18:45.570Z,2.4
2017-04-20T06:20:50.314Z,2.5
2017-04-20T06:21:52.695Z,2.5
2017-04-20T06:22:55.224Z,2.5
2017-04-20T06:23:57.818Z,2.6
2017-04-20T06:25:00.712Z,2.5
2017-04-20T06:26:02.546Z,2.6
2017-04-20T06:27:05.389Z,2.6
2017-04-20T06:28:07.724Z,2.7
2017-04-20T06:29:10.311Z,2.7
2017-04-20T06:30:12.646Z,2.7
2017-04-20T06:31:15.554Z,2.8
2017-04-20T06:32:17.887Z,2.8
2017-04-20T06:33:20.220Z,2.9
2017-04-20T06:34:23.362Z,2.8
2017-04-20T06:35:25.200Z,3
2017-04-20T06:36:28.042Z,2.9
2017-04-20T06:37:30.392Z,2.9
2017-04-20T06:38:32.592Z,2.8
2017-04-20T06:39:35.735Z,2.8
2017-04-20T06:40:38.072Z,2.9
2017-04-20T06:41:40.644Z,2.9
2017-04-20T06:42:42.846Z,3
2017-04-20T06:43:45.546Z,3
2017-04-20T06:44:48.136Z,3
2017-04-20T06:45:50.559Z,3
2017-04-20T06:46:53.399Z,3
2017-04-20T06:47:55.731Z,3.1
2017-04-20T06:48:57.935Z,3.1
2017-04-20T06:50:01.132Z,3.1
2017-04-20T06:51:03.336Z,3.1
2017-04-20T06:52:05.670Z,3.1
2017-04-20T06:53:08.507Z,3.1
2017-04-20T06:54:10.705Z,3.2
2017-04-20T06:55:13.866Z,3.2
2017-04-20T06:56:15.565Z,3.3
2017-04-20T06:57:18.973Z,3.3
2017-04-20T06:58:20.844Z,3.3
2017-04-20T06:59:23.543Z,3.3
2017-04-20T07:00:26.183Z,3.3
2017-04-20T07:01:28.520Z,3.4
2017-04-20T07:02:30.722Z,3.3
2017-04-20T07:03:33.429Z,3.3
2017-04-20T07:05:38.929Z,3.4
2017-04-20T07:06:41.322Z,3.5
2017-04-20T07:07:43.663Z,3.5
2017-04-20T07:08:45.997Z,3.5
2017-04-20T07:09:48.707Z,3.5
2017-04-20T07:10:51.568Z,3.6
2017-04-20T07:11:53.924Z,3.5
2017-04-20T07:12:56.261Z,3.5
2017-04-20T07:13:58.653Z,3.5
2017-04-20T07:15:01.498Z,3.5
2017-04-20T07:16:04.007Z,3.5
2017-04-20T07:17:06.345Z,3.5
2017-04-20T07:18:09.187Z,3.5
2017-04-20T07:19:11.527Z,3.5
2017-04-20T07:20:13.864Z,3.6
2017-04-20T07:21:16.877Z,3.6
2017-04-20T07:22:19.218Z,3.5
2017-04-20T07:23:21.695Z,3.5
2017-04-20T07:24:24.030Z,3.5
2017-04-20T07:25:26.585Z,3.5
2017-04-20T07:26:29.677Z,3.6
2017-04-20T07:27:32.011Z,3.6
2017-04-20T07:28:34.217Z,3.6
2017-04-20T07:29:36.923Z,3.5
2017-04-20T07:30:39.262Z,3.5
2017-04-20T07:32:45.374Z,3.5
2017-04-20T07:33:47.213Z,3.5
2017-04-20T07:34:49.552Z,3.5
2017-04-20T07:35:51.752Z,3.5
2017-04-20T07:36:54.456Z,3.4
2017-04-20T07:37:57.467Z,3.5
2017-04-20T07:39:00.362Z,3.5
2017-04-20T07:40:02.063Z,3.4
2017-04-20T07:41:04.901Z,3.5
2017-04-20T07:42:07.102Z,3.5
2017-04-20T07:43:10.193Z,3.5
2017-04-20T07:44:12.398Z,3.5
2017-04-20T07:45:14.462Z,3.5
2017-04-20T07:46:17.169Z,3.4
2017-04-20T07:47:20.006Z,3.4
2017-04-20T07:48:22.197Z,3.5
2017-04-20T07:49:25.108Z,3.5
2017-04-20T07:50:27.514Z,3.5
2017-04-20T07:51:29.715Z,3.5
2017-04-20T07:52:32.563Z,3.5
2017-04-20T07:53:35.162Z,3.5
2017-04-20T07:54:37.498Z,3.6
2017-04-20T07:55:40.205Z,3.5
2017-04-20T07:56:42.407Z,3.5
2017-04-20T07:57:45.816Z,3.5
2017-04-20T07:58:47.948Z,3.4
2017-04-20T07:59:50.149Z,3.3
2017-04-20T08:00:52.991Z,3.3
2017-04-20T08:01:55.364Z,3.3
2017-04-20T08:02:57.702Z,3.3
2017-04-20T08:04:00.846Z,3.3
2017-04-20T08:05:02.551Z,3.4
2017-04-20T08:06:05.121Z,3.5
2017-04-20T08:07:07.977Z,3.6
2017-04-20T08:08:10.317Z,3.6
2017-04-20T08:09:13.455Z,3.6
2017-04-20T08:10:15.794Z,3.5
2017-04-20T08:11:18.132Z,3.5
2017-04-20T08:12:20.336Z,3.4
2017-04-20T08:13:23.179Z,3.3
2017-04-20T08:14:26.184Z,3.3
2017-04-20T08:15:28.287Z,3.3
2017-04-20T08:16:31.351Z,3.3
2017-04-20T08:17:33.187Z,3.4
2017-04-20T08:18:35.894Z,3.5
2017-04-20T08:20:40.752Z,3.5
2017-04-20T08:21:43.590Z,3.6
2017-04-20T08:22:45.793Z,3.6
2017-04-20T08:23:48.495Z,3.6
2017-04-20T08:24:50.834Z,3.6
2017-04-20T08:25:53.981Z,3.7
2017-04-20T08:26:55.686Z,3.8
2017-04-20T08:27:58.413Z,4
2017-04-20T08:29:01.117Z,4
2017-04-20T08:30:03.187Z,4.1
2017-04-20T08:31:06.649Z,4
2017-04-20T08:32:08.482Z,4
2017-04-20T08:33:11.186Z,3.8
2017-04-20T08:34:13.893Z,3.7
2017-04-20T08:35:16.108Z,3.6
2017-04-20T08:36:19.068Z,3.6
2017-04-20T08:37:21.406Z,3.6
2017-04-20T08:38:23.745Z,3.6
2017-04-20T08:39:26.585Z,3.6
2017-04-20T08:40:29.513Z,3.6
2017-04-20T08:41:31.606Z,3.6
2017-04-20T08:42:33.940Z,3.6
2017-04-20T08:43:36.785Z,3.6
2017-04-20T08:44:39.121Z,3.6
2017-04-20T08:45:41.327Z,3.6
2017-04-20T08:46:44.339Z,3.6
2017-04-20T08:48:49.075Z,3.6
2017-04-20T08:49:51.783Z,3.6
2017-04-20T08:50:55.046Z,3.7
2017-04-20T08:51:57.045Z,3.7
2017-04-20T08:52:59.498Z,3.7
2017-04-20T08:54:01.836Z,3.6
2017-04-20T08:55:04.545Z,3.6
2017-04-20T08:56:07.311Z,3.7
2017-04-20T08:57:09.766Z,3.7
2017-04-20T08:58:12.105Z,3.6
2017-04-20T08:59:14.175Z,3.6
2017-04-20T09:00:17.013Z,3.5
2017-04-20T09:01:19.734Z,3.5
2017-04-20T09:02:22.381Z,3.6
2017-04-20T09:03:24.584Z,3.6
2017-04-20T09:04:26.988Z,3.5
2017-04-20T09:05:29.924Z,3.5
2017-04-20T09:06:32.541Z,3.6
2017-04-20T09:07:35.126Z,3.6
2017-04-20T09:08:37.325Z,3.6
2017-04-20T09:09:40.052Z,3.6
2017-04-20T09:10:42.397Z,3.7
2017-04-20T09:11:44.602Z,3.8
2017-04-20T09:12:47.752Z,3.8
2017-04-20T09:14:52.503Z,3.8
2017-04-20T09:15:54.844Z,3.7
2017-04-20T09:16:58.177Z,3.8
2017-04-20T09:18:00.273Z,3.8
2017-04-20T09:19:02.635Z,3.9
2017-04-20T09:20:04.969Z,4
2017-04-20T09:21:07.679Z,4.1
2017-04-20T09:22:10.574Z,4.2
2017-04-20T09:23:13.165Z,4.3
2017-04-20T09:24:16.064Z,4.3
2017-04-20T09:25:17.903Z,4.4
2017-04-20T09:26:20.238Z,4.4
2017-04-20T09:27:22.946Z,4.4
2017-04-20T09:28:25.584Z,4.4
2017-04-20T09:29:27.785Z,4.3
2017-04-20T09:30:31.436Z,4.3
2017-04-20T09:31:33.132Z,4.3
2017-04-20T09:32:35.841Z,4.2
2017-04-20T09:33:38.292Z,4.1
2017-04-20T09:34:40.624Z,4.1
2017-04-20T09:35:43.264Z,4.1
2017-04-20T09:36:45.831Z,4.1
2017-04-20T09:37:48.174Z,4.1
2017-04-20T09:38:51.176Z,4.1
2017-04-20T09:39:53.512Z,4.1
2017-04-20T09:40:55.847Z,4.1
2017-04-20T09:41:58.688Z,4.2
2017-04-20T09:43:00.901Z,4.1
2017-04-20T09:44:03.919Z,4.1
2017-04-20T09:45:06.271Z,4.1
2017-04-20T09:46:08.608Z,4.1
2017-04-20T09:47:10.947Z,4.1
2017-04-20T09:48:13.649Z,4.1
2017-04-20T09:49:16.239Z,4.2
2017-04-20T09:50:18.446Z,4.2
2017-04-20T09:51:21.162Z,4.3
2017-04-20T09:52:23.873Z,4.2
2017-04-20T09:53:26.212Z,4.3
2017-04-20T09:54:29.359Z,4.3
2017-04-20T09:55:31.691Z,4.3
2017-04-20T09:56:34.064Z,4.3
2017-04-20T09:57:36.791Z,4.4
2017-04-20T09:58:38.995Z,4.3
2017-04-20T09:59:42.144Z,4.3
2017-04-20T10:00:43.840Z,4.3
2017-04-20T10:01:46.414Z,4.3
2017-04-20T10:02:49.256Z,4.3
2017-04-20T10:03:51.957Z,4.2
2017-04-20T10:04:54.280Z,4.1
2017-04-20T10:05:57.121Z,4.1
2017-04-20T10:06:59.323Z,4.1
2017-04-20T10:08:02.168Z,4.2
2017-04-20T10:09:04.168Z,4.2
2017-04-20T10:10:07.174Z,4.3
2017-04-20T10:11:09.370Z,4.3
2017-04-20T10:12:12.075Z,4.3
2017-04-20T10:13:14.474Z,4.4
2017-04-20T10:14:17.365Z,4.4
2017-04-20T10:15:19.876Z,4.4
2017-04-20T10:16:22.075Z,4.4
2017-04-20T10:17:24.780Z,4.4
2017-04-20T10:18:27.486Z,4.4
2017-04-20T10:19:29.688Z,4.5
2017-04-20T10:20:32.703Z,4.4
2017-04-20T10:21:34.905Z,4.4
2017-04-20T10:22:37.742Z,4.4
2017-04-20T10:23:39.944Z,4.4
2017-04-20T10:24:42.644Z,4.5
2017-04-20T10:25:45.521Z,4.5
2017-04-20T10:26:47.721Z,4.5
2017-04-20T10:27:50.292Z,4.4
2017-04-20T10:28:52.505Z,4.5
2017-04-20T10:29:54.940Z,4.5
2017-04-20T10:30:58.446Z,4.6
2017-04-20T10:32:00.652Z,4.6
2017-04-20T10:33:02.989Z,4.6
2017-04-20T10:35:07.964Z,4.7
2017-04-20T10:36:10.835Z,4.8
2017-04-20T10:38:15.695Z,4.6
2017-04-20T10:39:18.043Z,4.5
2017-04-20T10:40:20.747Z,4.5
2017-04-20T10:41:23.619Z,4.5
2017-04-20T10:42:25.887Z,4.5
2017-04-20T10:43:28.459Z,4.6
2017-04-20T10:44:30.664Z,4.6
2017-04-20T10:45:33.503Z,4.6
2017-04-20T10:46:36.393Z,4.6
2017-04-20T10:47:38.602Z,4.6
2017-04-20T10:48:40.810Z,4.6
2017-04-20T10:49:43.520Z,4.6
2017-04-20T10:50:46.427Z,4.6
2017-04-20T10:51:48.801Z,4.6
2017-04-20T10:52:51.005Z,4.6
2017-04-20T10:53:53.714Z,4.6
2017-04-20T10:54:56.285Z,4.6
2017-04-20T10:57:01.506Z,4.8
2017-04-20T10:58:04.206Z,4.7
2017-04-20T10:59:06.743Z,4.8
2017-04-20T11:00:08.956Z,4.8
2017-04-20T11:01:11.537Z,4.7
2017-04-20T11:02:14.505Z,4.6
2017-04-20T11:03:16.708Z,4.6
2017-04-20T11:04:19.475Z,4.6
2017-04-20T11:05:21.624Z,4.7
2017-04-20T11:06:24.255Z,4.7
2017-04-20T11:07:27.262Z,4.7
2017-04-20T11:08:29.601Z,4.8
2017-04-20T11:09:31.668Z,4.8
2017-04-20T11:10:34.741Z,4.9
2017-04-20T11:11:37.459Z,4.9
2017-04-20T11:12:40.094Z,5
2017-04-20T11:13:42.296Z,5
2017-04-20T11:14:44.735Z,5
2017-04-20T11:15:47.437Z,5
2017-04-20T11:16:50.005Z,5.1
2017-04-20T11:17:52.639Z,5.1
2017-04-20T11:18:54.841Z,5.1
2017-04-20T11:19:57.416Z,5.1
2017-04-20T11:22:02.531Z,5.1
2017-04-20T11:23:05.672Z,5
2017-04-20T11:24:07.876Z,5.1
2017-04-20T11:25:10.079Z,5.1
2017-04-20T11:26:12.920Z,5
2017-04-20T11:27:15.625Z,5
2017-04-20T11:28:18.076Z,5
2017-04-20T11:29:20.278Z,5
2017-04-20T11:30:22.849Z,5
2017-04-20T11:31:25.553Z,5.1
2017-04-20T11:32:28.260Z,5.1
2017-04-20T11:33:31.264Z,5.1
2017-04-20T11:34:33.460Z,5
2017-04-20T11:35:36.167Z,5
2017-04-20T11:36:38.500Z,5
2017-04-20T11:38:43.773Z,5
2017-04-20T11:39:45.975Z,5
2017-04-20T11:40:48.677Z,5.1
2017-04-20T11:41:51.535Z,5.1
2017-04-20T11:42:53.869Z,5.1
2017-04-20T11:43:56.233Z,5.1
2017-04-20T11:44:58.941Z,5.1
2017-04-20T11:46:01.015Z,5.1
2017-04-20T11:47:04.426Z,5.1
2017-04-20T11:48:06.759Z,5.1
2017-04-20T11:49:09.260Z,5.1
2017-04-20T11:50:11.971Z,5.1
2017-04-20T11:51:14.670Z,5.1
2017-04-20T11:52:16.871Z,5.1
2017-04-20T11:53:19.073Z,5.2
2017-04-20T11:54:21.895Z,5.2
2017-04-20T11:55:24.600Z,5.2
2017-04-20T11:56:26.731Z,5.3
2017-04-20T11:57:29.574Z,5.3
2017-04-20T11:59:35.124Z,5.3
2017-04-20T12:00:37.328Z,5.2
2017-04-20T12:01:39.664Z,5.2
2017-04-20T12:02:42.505Z,5.1
2017-04-20T12:03:44.841Z,5.1
2017-04-20T12:04:47.934Z,5.1
2017-04-20T12:05:50.135Z,5.1
2017-04-20T12:06:52.338Z,5.3
2017-04-20T12:07:54.904Z,5.3
2017-04-20T12:08:57.740Z,5.4
2017-04-20T12:10:00.699Z,5.4
2017-04-20T12:11:02.828Z,5.4
2017-04-20T12:12:05.536Z,5.4
2017-04-20T12:13:07.736Z,5.5
2017-04-20T12:14:10.444Z,5.5
2017-04-20T12:15:13.372Z,5.5
2017-04-20T12:16:15.707Z,5.5
2017-04-20T12:17:17.913Z,5.6
2017-04-20T12:18:20.624Z,5.6
2017-04-20T12:19:23.327Z,5.7
2017-04-20T12:20:25.792Z,5.7
2017-04-20T12:21:28.502Z,5.7
2017-04-20T12:22:31.402Z,5.8
2017-04-20T12:23:33.614Z,5.8
2017-04-20T12:24:35.814Z,5.7
2017-04-20T12:25:38.771Z,5.7
2017-04-20T12:26:41.107Z,5.7
2017-04-20T12:27:43.936Z,5.7
2017-04-20T12:28:46.139Z,5.6
2017-04-20T12:29:48.892Z,5.6
2017-04-20T12:30:51.536Z,5.7
2017-04-20T12:31:53.873Z,5.7
2017-04-20T12:33:59.118Z,5.7
2017-04-20T12:35:01.964Z,5.7
2017-04-20T12:36:04.415Z,5.7
2017-04-20T12:37:06.754Z,5.6
2017-04-20T12:38:09.470Z,5.6
2017-04-20T12:39:11.808Z,5.6
2017-04-20T12:40:14.793Z,5.6
2017-04-20T12:41:17.296Z,5.7
2017-04-20T12:42:19.630Z,5.7
2017-04-20T12:43:22.526Z,5.7
2017-04-20T12:44:24.861Z,5.8
2017-04-20T12:45:27.199Z,5.8
2017-04-20T12:46:30.353Z,5.9
2017-04-20T12:47:32.552Z,6
2017-04-20T12:48:35.120Z,6
2017-04-20T12:49:37.318Z,6
2017-04-20T12:50:40.155Z,6
2017-04-20T12:52:45.697Z,5.9
2017-04-20T12:53:48.030Z,5.9
2017-04-20T12:54:50.367Z,5.9
2017-04-20T12:55:53.086Z,5.9
2017-04-20T12:56:55.287Z,5.9
2017-04-20T12:57:58.482Z,5.8
2017-04-20T12:59:00.547Z,5.8
2017-04-20T13:00:03.253Z,5.9
2017-04-20T13:01:06.091Z,6
2017-04-20T13:02:08.430Z,6
2017-04-20T13:03:11.568Z,6
2017-04-20T13:04:13.399Z,6
2017-04-20T13:05:16.219Z,6
2017-04-20T13:06:18.724Z,6
2017-04-20T13:08:24.219Z,6
2017-04-20T13:09:26.557Z,6
2017-04-20T13:10:28.624Z,6
2017-04-20T13:11:31.466Z,6
2017-04-20T13:12:34.173Z,6
2017-04-20T13:13:36.629Z,6.1
2017-04-20T13:14:40.034Z,6.1
2017-04-20T13:15:41.866Z,6.1
2017-04-20T13:16:44.207Z,6.1
2017-04-20T13:17:47.456Z,6.1
2017-04-20T13:18:49.906Z,6.1
2017-04-20T13:19:52.241Z,6.1
2017-04-20T13:20:54.438Z,6.1
2017-04-20T13:21:57.142Z,6.1
2017-04-20T13:22:59.849Z,6.1
2017-04-20T13:24:02.410Z,6.1
2017-04-20T13:25:04.797Z,6.2
2017-04-20T13:26:07.231Z,6.1
2017-04-20T13:27:10.070Z,6.2
2017-04-20T13:28:12.969Z,6.2
2017-04-20T13:29:15.607Z,6.1
2017-04-20T13:30:17.980Z,6.2
2017-04-20T13:31:20.180Z,6.2
2017-04-20T13:32:23.020Z,6.1
2017-04-20T13:33:25.857Z,6.1
2017-04-20T13:34:28.493Z,6.1
2017-04-20T13:35:30.835Z,6.2
2017-04-20T13:36:33.044Z,6.3
2017-04-20T13:37:36.290Z,6.3
2017-04-20T13:38:38.624Z,6.3
2017-04-20T13:39:41.267Z,6.3
2017-04-20T13:40:43.339Z,6.3
2017-04-20T13:41:46.182Z,6.3
2017-04-20T13:42:49.050Z,6.3
2017-04-20T13:44:54.095Z,6.3
2017-04-20T13:45:56.434Z,6.3
2017-04-20T13:46:59.272Z,6.3
2017-04-20T13:48:01.480Z,6.3
2017-04-20T13:49:04.248Z,6.3
2017-04-20T13:50:06.892Z,6.3
2017-04-20T13:51:09.094Z,6.3
2017-04-20T13:52:11.937Z,6.3
2017-04-20T13:53:14.641Z,6.3
2017-04-20T13:54:16.978Z,6.2
2017-04-20T13:55:19.941Z,6.2
2017-04-20T13:57:24.549Z,6.1
2017-04-20T13:58:27.257Z,6.1
2017-04-20T13:59:30.110Z,6.2
2017-04-20T14:00:32.619Z,6.2
2017-04-20T14:01:35.189Z,6.2
2017-04-20T14:02:37.390Z,6.3
2017-04-20T14:03:40.096Z,6.3
2017-04-20T14:04:42.937Z,6.3
2017-04-20T14:05:45.437Z,6.3
2017-04-20T14:06:48.842Z,6.3
2017-04-20T14:08:52.946Z,6.4
2017-04-20T14:09:55.649Z,6.4
2017-04-20T14:12:01.147Z,6.3
2017-04-20T14:13:03.491Z,6.3
2017-04-20T14:14:05.839Z,6.4
2017-04-20T14:16:11.079Z,6.4
2017-04-20T14:17:14.087Z,6.4
2017-04-20T14:18:16.423Z,6.4
2017-04-20T14:19:18.766Z,6.4
2017-04-20T14:20:21.335Z,6.4
2017-04-20T14:21:23.756Z,6.4
2017-04-20T14:22:27.474Z,6.5
2017-04-20T14:23:29.309Z,6.5
2017-04-20T14:24:32.588Z,6.4
2017-04-20T14:25:34.425Z,6.5
2017-04-20T14:26:37.130Z,6.5
2017-04-20T14:27:39.764Z,6.5
2017-04-20T14:28:42.107Z,6.5
2017-04-20T14:29:44.949Z,6.5
2017-04-20T14:30:47.285Z,6.5
2017-04-20T14:31:50.117Z,6.5
2017-04-20T14:32:52.487Z,6.5
2017-04-20T14:33:55.333Z,6.5
2017-04-20T14:34:57.774Z,6.5
2017-04-20T14:36:00.109Z,6.5
2017-04-20T14:37:02.950Z,6.5
2017-04-20T14:38:05.540Z,6.5
2017-04-20T14:39:07.882Z,6.5
2017-04-20T14:40:10.591Z,6.5
2017-04-20T14:41:13.299Z,6.5
2017-04-20T14:42:15.637Z,6.5
2017-04-20T14:43:18.594Z,6.5
2017-04-20T14:44:20.930Z,6.6
2017-04-20T14:45:23.221Z,6.5
2017-04-20T14:46:26.060Z,6.5
2017-04-20T14:47:28.689Z,6.5
2017-04-20T14:48:31.276Z,6.5
2017-04-20T14:49:33.614Z,6.6
2017-04-20T14:50:36.319Z,6.6
2017-04-20T14:51:39.156Z,6.6
2017-04-20T14:52:41.497Z,6.6
2017-04-20T14:53:44.154Z,6.5
2017-04-20T14:54:46.491Z,6.5
2017-04-20T14:55:49.332Z,6.5
2017-04-20T14:56:51.671Z,6.5
2017-04-20T14:57:54.734Z,6.5
2017-04-20T14:58:57.208Z,6.5
2017-04-20T15:01:01.951Z,6.5
2017-04-20T15:02:04.791Z,6.5
2017-04-20T15:03:06.996Z,6.5
2017-04-20T15:04:10.091Z,6.5
2017-04-20T15:05:12.426Z,6.5
2017-04-20T15:06:15.263Z,6.5
2017-04-20T15:07:17.600Z,6.5
2017-04-20T15:08:20.503Z,6.5